createdAt,value
2018-10-19T00:00:59.347Z,101910.53
2018-10-19T00:03:27.645Z,101911.97
2018-10-19T00:05:55.803Z,101904.60
2018-10-19T00:08:24.006Z,101901.37
2018-10-19T00:10:52.314Z,101907.41
2018-10-19T00:13:20.490Z,101902.70
2018-10-19T00:15:48.708Z,101906.44
2018-10-19T00:18:16.955Z,101900.40
2018-10-19T00:20:45.355Z,101904.66
2018-10-19T00:23:13.746Z,101899.22
2018-10-19T00:25:41.896Z,101902.48
2018-10-19T00:28:10.143Z,101902.23
2018-10-19T00:30:38.324Z,101901.27
2018-10-19T00:33:06.504Z,101902.38
2018-10-19T00:35:34.688Z,101895.50
2018-10-19T00:38:02.983Z,101896.20
2018-10-19T00:40:31.647Z,101894.38
2018-10-19T00:42:59.948Z,101899.59
2018-10-19T00:45:33.331Z,101892.09
2018-10-19T00:48:08.687Z,101894.50
2018-10-19T00:50:36.940Z,101892.23
2018-10-19T00:53:05.724Z,101890.52
2018-10-19T00:55:33.923Z,101893.23
2018-10-19T00:58:02.315Z,101895.30
2018-10-19T01:00:30.596Z,101886.84
2018-10-19T01:02:58.862Z,101891.41
2018-10-19T01:05:27.081Z,101894.77
2018-10-19T01:07:55.484Z,101892.60
2018-10-19T01:10:24.077Z,101899.50
2018-10-19T01:12:54.890Z,101894.78
2018-10-19T01:15:23.103Z,101896.34
2018-10-19T01:17:51.643Z,101891.84
2018-10-19T01:20:19.910Z,101890.16
2018-10-19T01:22:48.115Z,101892.45
2018-10-19T01:25:16.314Z,101890.89
2018-10-19T01:27:44.499Z,101886.69
2018-10-19T01:30:12.699Z,101887.55
2018-10-19T01:32:40.940Z,101881.14
2018-10-19T01:35:10.976Z,101884.41
2018-10-19T01:37:39.111Z,101894.07
2018-10-19T01:40:09.286Z,101889.86
2018-10-19T01:42:37.808Z,101887.09
2018-10-19T01:45:06.953Z,101892.17
2018-10-19T01:47:35.130Z,101896.53
2018-10-19T01:50:03.392Z,101899.58
2018-10-19T01:52:31.575Z,101903.81
2018-10-19T01:54:59.798Z,101905.36
2018-10-19T01:57:27.971Z,101895.34
2018-10-19T01:59:56.127Z,101906.47
2018-10-19T02:02:24.315Z,101899.72
2018-10-19T02:04:52.477Z,101908.30
2018-10-19T02:07:20.654Z,101902.83
2018-10-19T02:09:48.827Z,101906.22
2018-10-19T02:12:17.042Z,101909.23
2018-10-19T02:14:45.207Z,101906.47
2018-10-19T02:17:13.684Z,101906.83
2018-10-19T02:19:41.823Z,101903.58
2018-10-19T02:22:10.136Z,101903.22
2018-10-19T02:24:38.314Z,101898.76
2018-10-19T02:27:06.964Z,101899.48
2018-10-19T02:29:35.195Z,101900.30
2018-10-19T02:32:03.384Z,101901.15
2018-10-19T02:34:31.568Z,101900.06
2018-10-19T02:36:59.740Z,101901.39
2018-10-19T02:39:27.900Z,101901.64
2018-10-19T02:41:56.146Z,101898.50
2018-10-19T02:44:24.317Z,101900.56
2018-10-19T02:46:52.500Z,101905.75
2018-10-19T02:49:20.654Z,101900.69
2018-10-19T02:51:48.812Z,101898.52
2018-10-19T02:54:16.983Z,101897.91
2018-10-19T02:56:45.233Z,101896.95
2018-10-19T02:59:13.555Z,101899.94
2018-10-19T03:01:41.675Z,101895.47
2018-10-19T03:04:09.867Z,101901.02
2018-10-19T03:06:38.100Z,101896.08
2018-10-19T03:09:09.214Z,101894.37
2018-10-19T03:11:37.373Z,101898.97
2018-10-19T03:14:05.510Z,101908.63
2018-10-19T03:16:33.654Z,101909.00
2018-10-19T03:19:01.831Z,101902.36
2018-10-19T03:21:30.024Z,101898.85
2018-10-19T03:23:58.275Z,101907.42
2018-10-19T03:26:26.508Z,101903.44
2018-10-19T03:28:54.689Z,101901.89
2018-10-19T03:31:22.882Z,101905.27
2018-10-19T03:33:51.047Z,101902.13
2018-10-19T03:36:19.261Z,101903.32
2018-10-19T03:38:47.488Z,101899.84
2018-10-19T03:41:15.697Z,101903.81
2018-10-19T03:43:43.867Z,101906.48
2018-10-19T03:46:12.063Z,101908.89
2018-10-19T03:48:40.648Z,101917.83
2018-10-19T03:51:08.901Z,101922.17
2018-10-19T03:53:37.072Z,101922.05
2018-10-19T03:56:05.258Z,101918.92
2018-10-19T03:58:33.424Z,101923.27
2018-10-19T04:01:01.622Z,101917.80
2018-10-19T04:03:29.840Z,101920.71
2018-10-19T04:05:57.960Z,101924.70
2018-10-19T04:08:26.207Z,101925.30
2018-10-19T04:10:54.439Z,101924.81
2018-10-19T04:13:22.609Z,101923.12
2018-10-19T04:15:50.767Z,101925.41
2018-10-19T04:18:19.027Z,101917.95
2018-10-19T04:20:47.181Z,101919.28
2018-10-19T04:23:15.401Z,101921.09
2018-10-19T04:25:43.524Z,101918.55
2018-10-19T04:28:11.717Z,101915.53
2018-10-19T04:30:39.930Z,101914.94
2018-10-19T04:33:08.187Z,101915.89
2018-10-19T04:35:36.403Z,101913.36
2018-10-19T04:38:04.639Z,101911.78
2018-10-19T04:40:32.857Z,101910.09
2018-10-19T04:43:04.178Z,101903.80
2018-10-19T04:45:32.422Z,101909.85
2018-10-19T04:48:00.646Z,101913.20
2018-10-19T04:50:28.816Z,101916.59
2018-10-19T04:52:57.104Z,101922.04
2018-10-19T04:55:25.264Z,101918.05
2018-10-19T04:57:53.456Z,101918.05
2018-10-19T05:00:22.071Z,101919.75
2018-10-19T05:02:51.208Z,101927.97
2018-10-19T05:05:19.654Z,101929.55
2018-10-19T05:07:47.650Z,101926.89
2018-10-19T05:10:15.868Z,101928.06
2018-10-19T05:12:44.056Z,101932.89
2018-10-19T05:15:12.584Z,101930.97
2018-10-19T05:17:40.770Z,101929.16
2018-10-19T05:20:10.782Z,101935.69
2018-10-19T05:22:39.059Z,101932.55
2018-10-19T05:25:09.260Z,101929.41
2018-10-19T05:27:37.467Z,101929.78
2018-10-19T05:30:07.120Z,101925.42
2018-10-19T05:32:35.324Z,101925.79
2018-10-19T05:35:03.655Z,101927.72
2018-10-19T05:37:32.404Z,101927.59
2018-10-19T05:40:01.380Z,101929.78
2018-10-19T05:42:29.567Z,101926.16
2018-10-19T05:44:57.758Z,101935.70
2018-10-19T05:47:25.974Z,101940.90
2018-10-19T05:49:54.335Z,101940.41
2018-10-19T05:52:22.511Z,101937.64
2018-10-19T05:54:50.913Z,101945.13
2018-10-19T05:57:19.071Z,101940.03
2018-10-19T05:59:47.256Z,101951.98
2018-10-19T06:02:15.621Z,101947.04
2018-10-19T06:04:43.669Z,101947.89
2018-10-19T06:07:11.828Z,101942.09
2018-10-19T06:09:40.012Z,101945.11
2018-10-19T06:12:08.338Z,101941.98
2018-10-19T06:14:36.554Z,101947.66
2018-10-19T06:17:05.117Z,101951.75
2018-10-19T06:19:33.207Z,101956.11
2018-10-19T06:22:07.763Z,101961.05
2018-10-19T06:24:35.975Z,101961.05
2018-10-19T06:27:04.171Z,101962.02
2018-10-19T06:29:32.334Z,101967.33
2018-10-19T06:32:00.493Z,101962.02
2018-10-19T06:34:28.673Z,101962.02
2018-10-19T06:36:56.883Z,101965.16
2018-10-19T06:39:25.068Z,101974.45
2018-10-19T06:41:53.260Z,101967.33
2018-10-19T06:44:21.519Z,101972.28
2018-10-19T06:46:49.741Z,101973.61
2018-10-19T06:49:17.886Z,101972.64
2018-10-19T06:51:46.083Z,101973.49
2018-10-19T06:54:14.267Z,101974.34
2018-10-19T06:56:42.508Z,101968.18
2018-10-19T06:59:10.826Z,101972.53
2018-10-19T07:01:38.839Z,101965.64
2018-10-19T07:04:07.050Z,101969.39
2018-10-19T07:06:35.220Z,101973.73
2018-10-19T07:09:04.436Z,101975.80
2018-10-19T07:11:32.637Z,101984.50
2018-10-19T07:14:00.905Z,101976.41
2018-10-19T07:16:28.992Z,101979.92
2018-10-19T07:18:57.233Z,101979.55
2018-10-19T07:21:25.347Z,101978.22
2018-10-19T07:23:53.790Z,101980.28
2018-10-19T07:26:22.336Z,101982.09
2018-10-19T07:28:50.558Z,101978.47
2018-10-19T07:31:18.795Z,101981.34
2018-10-19T07:33:46.962Z,101983.89
2018-10-19T07:36:15.182Z,101990.05
2018-10-19T07:38:43.416Z,101979.42
2018-10-19T07:41:11.668Z,101986.80
2018-10-19T07:43:39.798Z,101986.42
2018-10-19T07:46:07.962Z,101989.08
2018-10-19T07:48:36.375Z,101990.78
2018-10-19T07:51:04.519Z,101989.93
2018-10-19T07:53:32.711Z,101997.30
2018-10-19T07:56:01.039Z,101999.48
2018-10-19T07:58:31.014Z,102004.31
2018-10-19T08:00:59.268Z,102004.31
2018-10-19T08:03:27.435Z,102000.58
2018-10-19T08:05:55.615Z,102001.67
2018-10-19T08:08:23.892Z,102008.41
2018-10-19T08:10:52.277Z,102019.53
2018-10-19T08:13:20.536Z,102022.44
2018-10-19T08:15:48.686Z,102016.28
2018-10-19T08:18:16.874Z,102016.63
2018-10-19T08:20:45.079Z,102019.78
2018-10-19T08:23:13.508Z,102017.37
2018-10-19T08:25:41.683Z,102019.79
2018-10-19T08:28:09.891Z,102016.89
2018-10-19T08:30:38.126Z,102019.64
2018-10-19T08:33:06.475Z,102016.50
2018-10-19T08:35:34.685Z,102020.73
2018-10-19T08:38:02.935Z,102016.75
2018-10-19T08:40:31.565Z,102025.21
2018-10-19T08:42:59.819Z,102024.00
2018-10-19T08:45:28.034Z,102021.70
2018-10-19T08:47:56.218Z,102026.78
2018-10-19T08:50:24.423Z,102025.45
2018-10-19T08:52:53.143Z,102026.17
2018-10-19T08:55:21.427Z,102028.86
2018-10-19T08:57:49.735Z,102032.12
2018-10-19T09:00:17.991Z,102026.44
2018-10-19T09:02:46.130Z,102026.44
2018-10-19T09:05:14.569Z,102032.22
2018-10-19T09:07:49.031Z,102033.67
2018-10-19T09:10:17.265Z,102030.33
2018-10-19T09:12:45.601Z,102031.39
2018-10-19T09:15:13.823Z,102035.86
2018-10-19T09:17:41.969Z,102031.64
2018-10-19T09:20:11.148Z,102028.25
2018-10-19T09:22:39.391Z,102020.48
2018-10-19T09:25:07.601Z,102014.91
2018-10-19T09:27:35.883Z,102015.16
2018-10-19T09:30:04.321Z,102025.08
2018-10-19T09:32:32.490Z,102021.05
2018-10-19T09:35:00.723Z,102019.72
2018-10-19T09:37:28.926Z,102018.25
2018-10-19T09:39:57.143Z,102013.97
2018-10-19T09:42:25.343Z,102016.86
2018-10-19T09:44:53.660Z,102012.22
2018-10-19T09:47:21.906Z,102006.75
2018-10-19T09:49:50.087Z,102007.19
2018-10-19T09:52:18.289Z,102008.02
2018-10-19T09:54:46.519Z,102002.80
2018-10-19T09:57:14.822Z,102012.92
2018-10-19T09:59:42.887Z,102006.27
2018-10-19T10:02:11.169Z,102003.34
2018-10-19T10:04:39.307Z,101999.20
2018-10-19T10:07:07.597Z,102001.00
2018-10-19T10:09:35.832Z,101995.87
2018-10-19T10:12:04.117Z,102001.96
2018-10-19T10:14:32.290Z,102001.74
2018-10-19T10:17:00.533Z,102002.00
2018-10-19T10:19:28.679Z,101996.23
2018-10-19T10:21:56.930Z,101997.47
2018-10-19T10:24:25.074Z,101992.64
2018-10-19T10:26:53.323Z,101991.22
2018-10-19T10:29:21.607Z,101982.54
2018-10-19T10:31:49.804Z,101978.84
2018-10-19T10:34:18.195Z,101977.16
2018-10-19T10:36:46.304Z,101981.47
2018-10-19T10:39:14.931Z,101977.46
2018-10-19T10:41:42.957Z,101972.52
2018-10-19T10:44:11.131Z,101969.09
2018-10-19T10:46:39.481Z,101967.05
2018-10-19T10:49:07.733Z,101966.48
2018-10-19T10:51:35.884Z,101962.42
2018-10-19T10:54:04.138Z,101967.95
2018-10-19T10:56:32.336Z,101967.10
2018-10-19T10:59:00.571Z,101963.74
2018-10-19T11:01:28.750Z,101956.80
2018-10-19T11:04:00.039Z,101953.77
2018-10-19T11:06:28.248Z,101950.39
2018-10-19T11:08:56.436Z,101944.78
2018-10-19T11:11:24.644Z,101942.88
2018-10-19T11:13:52.835Z,101943.70
2018-10-19T11:16:21.025Z,101947.30
2018-10-19T11:18:49.183Z,101940.63
2018-10-19T11:21:17.439Z,101935.44
2018-10-19T11:23:45.612Z,101937.03
2018-10-19T11:26:13.820Z,101935.94
2018-10-19T11:28:41.991Z,101933.19
2018-10-19T11:31:10.281Z,101944.08
2018-10-19T11:33:38.462Z,101933.09
2018-10-19T11:36:06.651Z,101936.39
2018-10-19T11:38:34.838Z,101937.59
2018-10-19T11:41:02.999Z,101932.47
2018-10-19T11:43:31.263Z,101935.14
2018-10-19T11:45:59.494Z,101934.21
2018-10-19T11:48:27.720Z,101935.00
2018-10-19T11:50:55.891Z,101931.48
2018-10-19T11:53:24.077Z,101931.22
2018-10-19T11:55:52.331Z,101933.09
2018-10-19T11:58:20.511Z,101930.16
2018-10-19T12:00:48.744Z,101931.00
2018-10-19T12:03:16.955Z,101927.00
2018-10-19T12:05:45.124Z,101924.33
2018-10-19T12:08:13.360Z,101929.75
2018-10-19T12:10:48.405Z,101933.98
2018-10-19T12:13:16.670Z,101925.84
2018-10-19T12:15:44.769Z,101933.05
2018-10-19T12:18:12.979Z,101922.50
2018-10-19T12:20:41.221Z,101922.71
2018-10-19T12:23:09.448Z,101919.06
2018-10-19T12:25:37.665Z,101920.97
2018-10-19T12:28:05.831Z,101917.02
2018-10-19T12:30:34.044Z,101917.09
2018-10-19T12:33:02.294Z,101912.47
2018-10-19T12:35:30.489Z,101908.67
2018-10-19T12:37:58.615Z,101908.41
2018-10-19T12:40:27.402Z,101904.80
2018-10-19T12:42:55.609Z,101901.14
2018-10-19T12:46:36.092Z,101905.50
2018-10-19T12:49:04.928Z,101901.06
2018-10-19T12:51:33.277Z,101900.39
2018-10-19T12:54:01.597Z,101901.02
2018-10-19T12:56:29.786Z,101901.02
2018-10-19T12:58:58.051Z,101900.67
2018-10-19T13:01:27.479Z,101900.45
2018-10-19T13:03:55.711Z,101898.00
2018-10-19T13:06:23.911Z,101894.21
2018-10-19T13:08:52.592Z,101892.92
2018-10-19T13:11:20.852Z,101889.83
2018-10-19T13:13:49.137Z,101886.26
2018-10-19T13:16:17.377Z,101887.00
2018-10-19T13:18:45.565Z,101886.09
2018-10-19T13:21:13.813Z,101882.44
2018-10-19T13:23:42.031Z,101880.61
2018-10-19T13:26:10.174Z,101877.09
2018-10-19T13:28:38.476Z,101875.97
2018-10-19T13:31:06.690Z,101871.83
2018-10-19T13:33:34.917Z,101868.17
2018-10-19T13:36:03.186Z,101871.09
2018-10-19T13:38:31.371Z,101868.98
2018-10-19T13:40:59.559Z,101868.70
2018-10-19T13:43:27.777Z,101872.22
2018-10-19T13:45:56.045Z,101872.28
2018-10-19T13:48:24.448Z,101867.68
2018-10-19T13:50:52.732Z,101869.83
2018-10-19T13:53:20.959Z,101865.19
2018-10-19T13:55:49.183Z,101862.59
2018-10-19T13:58:17.456Z,101863.70
2018-10-19T14:00:45.609Z,101862.89
2018-10-19T14:03:13.882Z,101859.96
2018-10-19T14:05:42.320Z,101854.68
2018-10-19T14:08:10.286Z,101851.38
2018-10-19T14:10:38.520Z,101844.69
2018-10-19T14:13:06.988Z,101852.11
2018-10-19T14:15:35.972Z,101843.13
2018-10-19T14:18:05.472Z,101845.92
2018-10-19T14:20:33.702Z,101841.02
2018-10-19T14:23:01.982Z,101840.92
2018-10-19T14:25:30.602Z,101835.77
2018-10-19T14:27:58.759Z,101842.46
2018-10-19T14:30:26.961Z,101840.78
2018-10-19T14:32:55.230Z,101838.25
2018-10-19T14:35:23.384Z,101845.22
2018-10-19T14:37:51.543Z,101834.67
2018-10-19T14:40:20.707Z,101837.84
2018-10-19T14:42:49.045Z,101839.33
2018-10-19T14:45:17.845Z,101837.64
2018-10-19T14:47:46.836Z,101845.63
2018-10-19T14:50:16.258Z,101840.64
2018-10-19T14:52:44.426Z,101839.30
2018-10-19T14:55:15.249Z,101837.96
2018-10-19T14:57:43.491Z,101838.25
2018-10-19T15:00:13.352Z,101839.87
2018-10-19T15:02:41.634Z,101837.84
2018-10-19T15:05:11.616Z,101843.19
2018-10-19T15:07:40.002Z,101840.95
2018-10-19T15:10:11.661Z,101841.77
2018-10-19T15:12:40.047Z,101846.41
2018-10-19T15:15:09.506Z,101847.86
2018-10-19T15:17:37.649Z,101845.33
2018-10-19T15:20:06.444Z,101845.97
2018-10-19T15:22:35.395Z,101851.59
2018-10-19T15:25:03.615Z,101852.90
2018-10-19T15:27:31.928Z,101851.01
2018-10-19T15:30:00.268Z,101851.99
2018-10-19T15:32:28.418Z,101852.62
2018-10-19T15:34:56.627Z,101851.78
2018-10-19T15:37:25.152Z,101852.91
2018-10-19T15:39:53.395Z,101860.72
2018-10-19T15:42:21.567Z,101860.69
2018-10-19T15:44:50.487Z,101861.59
2018-10-19T15:47:18.760Z,101871.72
2018-10-19T15:49:46.985Z,101871.83
2018-10-19T15:52:15.325Z,101876.39
2018-10-19T15:54:43.571Z,101877.30
2018-10-19T15:57:11.755Z,101873.26
2018-10-19T15:59:39.931Z,101877.54
2018-10-19T16:02:08.111Z,101878.80
2018-10-19T16:04:36.275Z,101874.37
2018-10-19T16:07:04.493Z,101883.67
2018-10-19T16:09:32.675Z,101887.59
2018-10-19T16:12:00.873Z,101882.17
2018-10-19T16:14:29.026Z,101886.95
2018-10-19T16:16:57.194Z,101893.79
2018-10-19T16:19:25.379Z,101889.70
2018-10-19T16:21:53.659Z,101894.83
2018-10-19T16:24:21.859Z,101894.58
2018-10-19T16:26:50.063Z,101901.52
2018-10-19T16:29:18.251Z,101903.48
2018-10-19T16:31:46.420Z,101901.95
2018-10-19T16:34:14.630Z,101899.42
2018-10-19T16:36:42.928Z,101897.38
2018-10-19T16:39:11.557Z,101906.86
2018-10-19T16:41:39.818Z,101911.97
2018-10-19T16:44:07.978Z,101917.31
2018-10-19T16:46:36.171Z,101924.60
2018-10-19T16:49:04.351Z,101926.42
2018-10-19T16:51:32.576Z,101920.73
2018-10-19T16:54:00.770Z,101921.23
2018-10-19T16:56:28.985Z,101920.55
2018-10-19T16:58:57.162Z,101922.38
2018-10-19T17:01:25.625Z,101928.20
2018-10-19T17:03:53.853Z,101927.48
2018-10-19T17:06:22.007Z,101927.97
2018-10-19T17:08:50.181Z,101925.44
2018-10-19T17:11:18.419Z,101928.46
2018-10-19T17:13:46.622Z,101929.93
2018-10-19T17:16:14.785Z,101924.38
2018-10-19T17:18:43.092Z,101920.02
2018-10-19T17:21:11.372Z,101922.33
2018-10-19T17:23:39.526Z,101932.29
2018-10-19T17:26:08.193Z,101937.75
2018-10-19T17:28:37.009Z,101944.23
2018-10-19T17:31:05.695Z,101957.21
2018-10-19T17:33:33.930Z,101960.14
2018-10-19T17:36:02.598Z,101973.12
2018-10-19T17:38:30.834Z,101972.53
2018-10-19T17:40:59.158Z,101973.16
2018-10-19T17:43:27.477Z,101979.95
2018-10-19T17:45:55.654Z,101981.28
2018-10-19T17:48:23.958Z,101989.09
2018-10-19T17:50:52.271Z,101990.06
2018-10-19T17:53:20.634Z,101990.20
2018-10-19T17:55:49.785Z,101991.66
2018-10-19T17:58:18.020Z,101991.92
2018-10-19T18:00:46.397Z,101999.20
2018-10-19T18:03:14.665Z,102004.66
2018-10-19T18:05:42.893Z,102005.77
2018-10-19T18:08:11.087Z,102014.74
2018-10-19T18:10:39.272Z,102010.91
2018-10-19T18:13:07.551Z,102015.39
2018-10-19T18:15:36.079Z,102015.88
2018-10-19T18:18:04.228Z,102027.88
2018-10-19T18:20:32.448Z,102026.67
2018-10-19T18:23:00.798Z,102028.98
2018-10-19T18:25:28.928Z,102029.11
2018-10-19T18:27:57.427Z,102030.69
2018-10-19T18:30:25.646Z,102033.36
2018-10-19T18:32:53.835Z,102028.03
2018-10-19T18:35:22.106Z,102035.18
2018-10-19T18:37:50.330Z,102036.02
2018-10-19T18:40:19.008Z,102032.03
2018-10-19T18:42:47.323Z,102031.67
2018-10-19T18:45:15.767Z,102029.97
2018-10-19T18:47:44.047Z,102033.61
2018-10-19T18:50:14.595Z,102033.26
2018-10-19T18:52:43.318Z,102030.23
2018-10-19T18:55:12.498Z,102036.20
2018-10-19T18:57:40.683Z,102042.88
2018-10-19T19:00:10.208Z,102040.46
2018-10-19T19:02:38.386Z,102048.58
2018-10-19T19:05:06.623Z,102048.83
2018-10-19T19:07:34.754Z,102048.96
2018-10-19T19:10:08.245Z,102057.93
2018-10-19T19:12:36.522Z,102055.62
2018-10-19T19:15:05.367Z,102058.91
2018-10-19T19:17:33.603Z,102062.05
2018-10-19T19:20:07.768Z,102058.05
2018-10-19T19:22:36.727Z,102056.48
2018-10-19T19:25:10.429Z,102060.73
2018-10-19T19:27:38.891Z,102063.04
2018-10-19T19:30:07.812Z,102068.62
2018-10-19T19:32:35.987Z,102071.53
2018-10-19T19:35:04.548Z,102065.48
2018-10-19T19:37:33.071Z,102064.92
2018-10-19T19:40:01.551Z,102065.05
2018-10-19T19:42:36.543Z,102074.37
2018-10-19T19:45:05.076Z,102078.97
2018-10-19T19:47:38.532Z,102081.63
2018-10-19T19:50:06.769Z,102079.94
2018-10-19T19:52:34.991Z,102077.89
2018-10-19T19:55:03.386Z,102077.16
2018-10-19T19:57:31.559Z,102069.78
2018-10-19T19:59:59.726Z,102079.35
2018-10-19T20:02:27.935Z,102081.57
2018-10-19T20:04:56.147Z,102082.91
2018-10-19T20:07:24.283Z,102083.19
2018-10-19T20:09:52.447Z,102089.48
2018-10-19T20:12:20.667Z,102088.80
2018-10-19T20:14:48.848Z,102092.78
2018-10-19T20:17:17.030Z,102089.39
2018-10-19T20:19:45.214Z,102088.34
2018-10-19T20:22:13.379Z,102085.55
2018-10-19T20:24:41.608Z,102089.42
2018-10-19T20:27:09.804Z,102077.32
2018-10-19T20:29:38.003Z,102075.30
2018-10-19T20:32:06.266Z,102089.68
2018-10-19T20:34:34.377Z,102096.20
2018-10-19T20:37:04.539Z,102083.87
2018-10-19T20:39:32.853Z,102084.35
2018-10-19T20:42:01.741Z,102089.79
2018-10-19T20:44:30.032Z,102086.88
2018-10-19T20:46:59.033Z,102090.66
2018-10-19T20:49:27.393Z,102091.34
2018-10-19T20:51:55.574Z,102087.23
2018-10-19T20:54:23.744Z,102084.20
2018-10-19T20:56:51.950Z,102096.41
2018-10-19T20:59:20.127Z,102093.65
2018-10-19T21:01:48.321Z,102102.22
2018-10-19T21:04:16.504Z,102105.11
2018-10-19T21:06:44.667Z,102104.50
2018-10-19T21:09:12.850Z,102102.92
2018-10-19T21:11:41.011Z,102103.04
2018-10-19T21:14:09.291Z,102096.17
2018-10-19T21:16:37.378Z,102099.53
2018-10-19T21:19:05.781Z,102103.05
2018-10-19T21:21:34.735Z,102106.17
2018-10-19T21:24:03.200Z,102104.70
2018-10-19T21:26:31.986Z,102103.63
2018-10-19T21:29:00.492Z,102114.61
2018-10-19T21:31:29.160Z,102116.28
2018-10-19T21:33:57.328Z,102113.25
2018-10-19T21:36:25.761Z,102109.75
2018-10-19T21:38:54.073Z,102121.23
2018-10-19T21:41:22.235Z,102123.15
2018-10-19T21:43:50.469Z,102119.64
2018-10-19T21:46:18.799Z,102121.48
2018-10-19T21:48:47.100Z,102119.42
2018-10-19T21:51:15.546Z,102123.52
2018-10-19T21:53:43.820Z,102129.80
2018-10-19T21:56:12.132Z,102126.89
2018-10-19T21:58:40.252Z,102129.28
2018-10-19T22:01:08.426Z,102128.08
2018-10-19T22:03:36.655Z,102135.78
2018-10-19T22:06:04.883Z,102137.00
2018-10-19T22:08:33.362Z,102142.66
2018-10-19T22:11:01.483Z,102132.84
2018-10-19T22:13:29.736Z,102138.27
2018-10-19T22:15:58.056Z,102143.94
2018-10-19T22:18:28.308Z,102145.48
2018-10-19T22:20:56.557Z,102149.69
2018-10-19T22:23:25.167Z,102153.30
2018-10-19T22:25:53.518Z,102146.41
2018-10-19T22:28:21.698Z,102143.75
2018-10-19T22:30:50.104Z,102152.20
2018-10-19T22:33:18.831Z,102159.94
2018-10-19T22:35:47.234Z,102168.02
2018-10-19T22:38:15.478Z,102162.44
2018-10-19T22:40:43.636Z,102169.45
2018-10-19T22:43:11.996Z,102161.59
2018-10-19T22:45:40.135Z,102165.69
2018-10-19T22:48:08.373Z,102171.10
2018-10-19T22:50:36.801Z,102175.19
2018-10-19T22:53:05.311Z,102177.95
2018-10-19T22:55:33.439Z,102175.38
2018-10-19T22:58:03.457Z,102179.47
2018-10-19T23:00:31.874Z,102169.84
2018-10-19T23:20:03.939Z,102189.36
2018-10-19T23:22:32.087Z,102192.13
2018-10-19T23:25:00.325Z,102192.92
2018-10-19T23:27:28.492Z,102199.29
2018-10-19T23:29:56.690Z,102200.38
2018-10-19T23:32:31.595Z,102196.51
2018-10-19T23:34:59.820Z,102192.26
2018-10-19T23:37:28.144Z,102196.45
2018-10-19T23:39:56.309Z,102197.24
2018-10-19T23:42:24.494Z,102209.90
2018-10-19T23:44:52.650Z,102214.56
2018-10-19T23:47:21.715Z,102215.62
2018-10-19T23:49:49.891Z,102209.77
2018-10-19T23:52:18.166Z,102212.53
2018-10-19T23:54:46.459Z,102209.40
2018-10-19T23:57:14.642Z,102198.42
2018-10-19T23:59:42.871Z,102203.02
